Weather

Partly Cloudy
Sunday 04/22 0%
Partly Cloudy
Partly cloudy. Lows overnight in the upper 40s.
Clear
Monday 04/23 0%
Clear
Mostly sunny skies. High 82F. Winds SSW at 5 to 10 mph.
Clear
Tuesday 04/24 0%
Clear
Generally sunny despite a few afternoon clouds. High 84F. Winds S at 5 to 10 mph.
Clear
Wednesday 04/25 0%
Clear
Generally sunny despite a few afternoon clouds. High 74F. Winds SSE at 10 to 15 mph.
Partly Cloudy
Thursday 04/26 20%
Partly Cloudy
Partly cloudy skies. Slight chance of a rain shower. High around 80F. S winds shifting to WNW at 10 to 15 mph.

 

 

For a detailed forecast click the banner below.

ballooncastlogo

 

 

Available data for KABQ from the past 2 hours
ALBUQUERQUE, NM
Metar
KABQ 230052Z 19012KT 10SM FEW120 FEW170 BKN250 22/M03 A3004 RMK AO2 SLP120 T02221028 $

00:52 UTC

Wind: 190° 12kt

Visibility: 10 SM

Sky: FEW 12000 ft

Temp: 22 deg C / 71.6 deg F

Dewpoint: -3 deg C / 26.6 deg F

Pressure: 30.04 inHg

TAF
KABQ 222323Z 2300/2324 VRB05KT P6SM BKN200 FM230100 15008KT P6SM BKN150 FM230600 11011KT P6SM BKN120 FM231200 VRB04KT P6SM BKN150 FM231700 24006KT P6SM SCT150